Terminal Aerodrome Forecast
Issued by NWS Jacksonville, FL

Home | Current Version | Previous Version | Text Only | Print | Product List | Glossary On
Versions: 1 2 3 4 5 6 7 8 9 10 11 12 13 14
482
FTUS42 KJAX 250535
TAFJAX
TAF
KJAX 250535Z 2506/2606 24005KT P6SM FEW030 SCT250
     FM252100 20009KT 6SM -TSRA VCTS SCT030 BKN040CB PROB30
      2523/2603 VRB20G30KT 1SM +TSRA BKN015CB
     FM260400 30004KT P6SM SCT020 BKN100=

USA.gov is the U.S. government's official web portal to all federal, state and local government web resources and services.